createdAt,value
2019-01-22T00:00:35.724Z,-7.30
2019-01-22T00:03:03.255Z,-7.20
2019-01-22T00:05:30.737Z,-7.10
2019-01-22T00:07:58.206Z,-7.00
2019-01-22T00:10:25.716Z,-7.00
2019-01-22T00:12:53.238Z,-6.90
2019-01-22T00:15:21.268Z,-6.90
2019-01-22T00:17:48.727Z,-6.80
2019-01-22T00:20:16.333Z,-6.90
2019-01-22T00:22:43.833Z,-6.80
2019-01-22T00:25:11.450Z,-6.80
2019-01-22T00:27:38.913Z,-6.70
2019-01-22T00:30:10.307Z,-6.60
2019-01-22T00:32:37.784Z,-6.60
2019-01-22T00:35:05.428Z,-6.60
2019-01-22T00:37:32.987Z,-6.60
2019-01-22T00:40:00.449Z,-6.60
2019-01-22T00:42:27.956Z,-6.60
2019-01-22T00:44:55.462Z,-6.60
2019-01-22T00:47:22.918Z,-6.60
2019-01-22T00:49:50.410Z,-6.60
2019-01-22T00:52:17.879Z,-6.50
2019-01-22T00:54:45.389Z,-6.60
2019-01-22T00:57:12.856Z,-6.60
2019-01-22T00:59:40.308Z,-6.50
2019-01-22T01:02:07.819Z,-6.50
2019-01-22T01:04:35.283Z,-6.40
2019-01-22T01:07:02.912Z,-6.30
2019-01-22T01:09:30.383Z,-6.20
2019-01-22T01:11:57.837Z,-6.10
2019-01-22T01:14:25.378Z,-6.00
2019-01-22T01:16:53.148Z,-5.90
2019-01-22T01:19:20.604Z,-5.80
2019-01-22T01:21:48.418Z,-5.80
2019-01-22T01:24:15.891Z,-5.70
2019-01-22T01:26:43.360Z,-5.60
2019-01-22T01:29:10.854Z,-5.60
2019-01-22T01:31:38.375Z,-5.50
2019-01-22T01:34:05.854Z,-5.50
2019-01-22T01:36:33.322Z,-5.50
2019-01-22T01:39:00.866Z,-5.40
2019-01-22T01:41:28.363Z,-5.30
2019-01-22T01:43:55.852Z,-5.30
2019-01-22T01:46:23.334Z,-5.20
2019-01-22T01:48:51.146Z,-5.20
2019-01-22T01:51:18.624Z,-5.30
2019-01-22T01:53:46.134Z,-5.30
2019-01-22T01:56:13.658Z,-5.30
2019-01-22T01:58:41.156Z,-5.20
2019-01-22T02:01:08.632Z,-5.10
2019-01-22T02:03:36.161Z,-5.10
2019-01-22T02:06:03.771Z,-5.10
2019-01-22T02:08:31.255Z,-5.10
2019-01-22T02:10:58.754Z,-5.00
2019-01-22T02:13:30.502Z,-5.10
2019-01-22T02:16:26.095Z,-5.00
2019-01-22T02:19:02.459Z,-5.00
2019-01-22T02:22:10.575Z,-5.00
2019-01-22T02:25:15.096Z,-5.00
2019-01-22T02:28:12.191Z,-5.10
2019-01-22T02:30:56.815Z,-5.00
2019-01-22T02:33:39.940Z,-4.90
2019-01-22T02:36:32.558Z,-4.50
2019-01-22T02:39:25.879Z,-4.70
2019-01-22T02:42:15.664Z,-4.70
2019-01-22T02:45:23.969Z,-4.60
2019-01-22T02:48:06.966Z,-4.60
2019-01-22T02:51:19.156Z,-4.60
2019-01-22T02:54:08.625Z,-4.60
2019-01-22T02:56:58.558Z,-4.50
2019-01-22T03:00:03.708Z,-4.50
2019-01-22T03:03:12.199Z,-4.50
2019-01-22T03:06:05.357Z,-4.50
2019-01-22T03:09:05.187Z,-4.40
2019-01-22T03:11:51.648Z,-4.50
2019-01-22T03:14:48.853Z,-4.40
2019-01-22T03:17:53.423Z,-4.40
2019-01-22T03:21:00.433Z,-4.40
2019-01-22T03:24:03.546Z,-4.40
2019-01-22T03:26:56.877Z,-4.40
2019-01-22T03:29:53.696Z,-4.40
2019-01-22T03:32:47.734Z,-4.40
2019-01-22T03:36:04.405Z,-4.30
2019-01-22T03:38:53.749Z,-4.30
2019-01-22T03:42:24.290Z,-4.30
2019-01-22T03:45:32.160Z,-4.30
2019-01-22T03:48:39.827Z,-4.30
2019-01-22T03:51:27.158Z,-4.30
2019-01-22T03:54:48.285Z,-4.30
2019-01-22T03:58:01.992Z,-4.30
2019-01-22T04:00:52.953Z,-4.30
2019-01-22T04:03:20.461Z,-2.70
2019-01-22T04:05:50.410Z,-4.30
2019-01-22T04:08:17.952Z,-4.20
2019-01-22T04:11:03.082Z,-4.20
2019-01-22T04:13:30.570Z,-4.20
2019-01-22T04:15:58.019Z,-4.20
2019-01-22T04:18:25.509Z,-4.20
2019-01-22T04:20:53.013Z,-4.20
2019-01-22T04:24:01.796Z,-4.10
2019-01-22T04:27:15.224Z,-4.20
2019-01-22T04:30:07.477Z,-4.10
2019-01-22T04:32:55.962Z,-4.10
2019-01-22T04:35:57.399Z,-4.10
2019-01-22T04:38:51.802Z,-4.10
2019-01-22T04:41:42.235Z,-4.10
2019-01-22T04:44:40.585Z,-4.00
2019-01-22T04:47:52.569Z,-4.00
2019-01-22T04:50:50.560Z,-4.00
2019-01-22T04:54:09.811Z,-4.00
2019-01-22T04:57:19.415Z,-4.00
2019-01-22T05:00:21.576Z,-4.00
2019-01-22T05:03:42.602Z,-3.90
2019-01-22T05:06:42.672Z,-3.90
2019-01-22T05:09:56.714Z,-3.90
2019-01-22T05:13:08.455Z,-3.90
2019-01-22T05:16:10.893Z,-3.80
2019-01-22T05:19:41.969Z,-3.90
2019-01-22T05:22:38.057Z,-3.90
2019-01-22T05:26:08.412Z,-3.90
2019-01-22T05:29:23.224Z,-3.90
2019-01-22T05:32:20.617Z,-3.80
2019-01-22T05:35:18.296Z,-3.80
2019-01-22T05:38:29.593Z,-3.80
2019-01-22T05:41:38.418Z,-3.80
2019-01-22T05:44:40.615Z,-3.70
2019-01-22T05:47:47.430Z,-3.70
2019-01-22T05:51:10.906Z,-3.70
2019-01-22T05:54:09.431Z,-3.70
2019-01-22T05:57:05.248Z,-3.70
2019-01-22T06:00:11.714Z,-3.70
2019-01-22T06:02:47.371Z,-3.60
2019-01-22T06:06:12.145Z,-3.60
2019-01-22T06:09:00.776Z,-3.60
2019-01-22T06:12:13.082Z,-3.60
2019-01-22T06:15:33.582Z,-3.60
2019-01-22T06:18:26.149Z,-3.60
2019-01-22T06:21:34.312Z,-3.50
2019-01-22T06:24:33.296Z,-3.50
2019-01-22T06:27:29.409Z,-3.50
2019-01-22T06:30:45.893Z,-3.50
2019-01-22T06:33:44.823Z,-3.60
2019-01-22T06:36:59.981Z,-3.60
2019-01-22T06:40:03.039Z,-3.50
2019-01-22T06:42:53.260Z,-3.50
2019-01-22T06:45:44.394Z,-3.60
2019-01-22T06:48:52.479Z,-3.60
2019-01-22T06:51:39.814Z,-3.70
2019-01-22T06:54:39.763Z,-3.70
2019-01-22T06:57:50.374Z,-3.80
2019-01-22T07:01:06.293Z,-3.70
2019-01-22T07:04:14.189Z,-3.70
2019-01-22T07:07:25.890Z,-3.70
2019-01-22T07:10:33.584Z,-3.60
2019-01-22T07:13:40.783Z,-3.60
2019-01-22T07:16:45.695Z,-3.60
2019-01-22T07:19:51.953Z,-3.70
2019-01-22T07:22:58.110Z,-3.60
2019-01-22T07:25:43.261Z,-3.60
2019-01-22T07:28:42.322Z,-3.50
2019-01-22T07:32:04.916Z,-3.60
2019-01-22T07:35:21.817Z,-3.60
2019-01-22T07:38:35.766Z,-3.60
2019-01-22T07:41:44.689Z,-3.60
2019-01-22T07:44:20.795Z,-3.50
2019-01-22T07:47:39.202Z,-3.50
2019-01-22T07:50:40.740Z,-3.50
2019-01-22T07:53:46.093Z,-3.50
2019-01-22T07:57:04.737Z,-3.50
2019-01-22T08:00:17.211Z,-3.40
2019-01-22T08:03:53.177Z,-3.40
2019-01-22T08:06:37.443Z,-3.40
2019-01-22T08:09:55.972Z,-3.40
2019-01-22T08:12:33.762Z,-3.40
2019-01-22T08:15:42.283Z,-3.50
2019-01-22T08:18:44.304Z,-3.50
2019-01-22T08:21:28.943Z,-3.50
2019-01-22T08:24:47.646Z,-3.50
2019-01-22T08:27:40.612Z,-3.50
2019-01-22T08:30:55.729Z,-3.40
2019-01-22T08:34:05.707Z,-3.40
2019-01-22T08:37:00.541Z,-3.40
2019-01-22T08:40:18.006Z,-3.30
2019-01-22T08:43:20.338Z,-3.30
2019-01-22T08:46:37.898Z,-3.30
2019-01-22T08:49:52.881Z,-3.30
2019-01-22T08:52:47.361Z,-3.20
2019-01-22T08:55:47.695Z,-3.20
2019-01-22T08:58:30.283Z,-3.10
2019-01-22T09:01:53.336Z,-3.10
2019-01-22T09:05:04.746Z,-3.10
2019-01-22T09:08:12.019Z,-3.10
2019-01-22T09:11:26.228Z,-3.10
2019-01-22T09:14:22.421Z,-3.10
2019-01-22T09:17:40.415Z,-3.10
2019-01-22T09:21:07.692Z,-3.10
2019-01-22T09:23:56.059Z,-3.10
2019-01-22T09:26:47.024Z,-3.10
2019-01-22T09:29:40.615Z,-3.00
2019-01-22T09:32:48.804Z,-3.00
2019-01-22T09:36:25.729Z,-3.40
2019-01-22T09:38:53.221Z,-2.90
2019-01-22T09:41:20.685Z,-2.80
2019-01-22T09:43:48.190Z,-2.80
2019-01-22T09:46:15.692Z,-2.80
2019-01-22T09:48:43.101Z,-2.80
2019-01-22T09:51:10.617Z,-2.80
2019-01-22T09:53:38.096Z,-2.70
2019-01-22T09:56:05.599Z,-2.80
2019-01-22T09:58:33.077Z,-2.70
2019-01-22T10:01:00.554Z,-2.80
2019-01-22T10:03:28.346Z,-2.80
2019-01-22T10:05:55.991Z,-2.80
2019-01-22T10:08:23.443Z,-2.70
2019-01-22T10:10:50.958Z,-2.70
2019-01-22T10:13:18.468Z,-2.70
2019-01-22T10:15:45.955Z,-2.80
2019-01-22T10:18:13.476Z,-2.70
2019-01-22T10:20:40.929Z,-2.70
2019-01-22T10:23:08.588Z,-2.60
2019-01-22T10:25:36.178Z,-2.60
2019-01-22T10:28:03.783Z,-2.60
2019-01-22T10:30:31.510Z,-2.50
2019-01-22T10:32:58.975Z,-2.50
2019-01-22T10:35:26.418Z,-2.50
2019-01-22T10:37:53.941Z,-2.40
2019-01-22T10:40:22.241Z,-2.40
2019-01-22T10:42:49.793Z,-2.40
2019-01-22T10:45:17.676Z,-2.40
2019-01-22T10:47:45.177Z,-2.30
2019-01-22T10:50:13.687Z,-2.30
2019-01-22T10:52:41.152Z,-2.30
2019-01-22T10:55:10.647Z,-2.30
2019-01-22T10:57:38.244Z,-2.30
2019-01-22T11:00:10.082Z,-2.30
2019-01-22T11:02:37.612Z,-2.30
2019-01-22T11:05:08.840Z,-2.10
2019-01-22T11:07:36.312Z,-2.30
2019-01-22T11:10:04.722Z,-2.20
2019-01-22T11:12:32.261Z,-2.20
2019-01-22T11:14:59.727Z,-2.20
2019-01-22T11:17:27.202Z,-2.20
2019-01-22T11:19:54.684Z,-2.30
2019-01-22T11:22:22.160Z,-2.30
2019-01-22T11:24:52.793Z,-2.40
2019-01-22T11:27:19.066Z,-2.40
2019-01-22T11:29:46.528Z,-3.50
2019-01-22T11:32:14.396Z,-2.40
2019-01-22T11:34:41.888Z,-2.40
2019-01-22T11:37:09.356Z,-2.40
2019-01-22T11:39:36.876Z,-2.50
2019-01-22T11:42:04.340Z,-2.40
2019-01-22T11:44:31.851Z,-2.40
2019-01-22T11:46:59.340Z,-2.40
2019-01-22T11:49:26.879Z,-2.40
2019-01-22T11:51:54.394Z,-2.30
2019-01-22T11:54:21.873Z,-2.30
2019-01-22T11:56:49.356Z,-2.30
2019-01-22T11:59:16.819Z,-2.30
2019-01-22T12:01:44.356Z,-2.40
2019-01-22T12:04:11.900Z,-2.40
2019-01-22T12:06:39.371Z,-2.40
2019-01-22T12:09:07.954Z,-2.50
2019-01-22T12:11:35.588Z,-2.50
2019-01-22T12:14:03.278Z,-2.40
2019-01-22T12:16:30.812Z,-2.40
2019-01-22T12:18:58.306Z,-2.40
2019-01-22T12:21:26.185Z,-2.40
2019-01-22T12:23:53.648Z,-2.40
2019-01-22T12:26:21.147Z,-2.40
2019-01-22T12:28:48.654Z,-2.00
2019-01-22T12:31:16.157Z,-2.40
2019-01-22T12:33:43.652Z,-2.40
2019-01-22T12:36:11.192Z,-2.40
2019-01-22T12:38:38.670Z,-2.40
2019-01-22T12:41:06.167Z,-1.90
2019-01-22T12:43:33.720Z,-2.50
2019-01-22T12:46:01.198Z,-2.60
2019-01-22T12:48:28.736Z,-2.60
2019-01-22T12:50:56.223Z,-2.60
2019-01-22T12:53:23.737Z,-2.50
2019-01-22T12:55:51.277Z,-2.50
2019-01-22T12:58:18.763Z,-2.50
2019-01-22T13:00:46.242Z,-2.50
2019-01-22T13:03:13.775Z,-2.50
2019-01-22T13:06:01.871Z,-2.50
2019-01-22T13:08:29.420Z,-2.50
2019-01-22T13:10:56.938Z,-2.50
2019-01-22T13:13:24.485Z,-2.40
2019-01-22T13:15:52.030Z,-2.40
2019-01-22T13:18:19.516Z,-2.30
2019-01-22T13:20:47.140Z,-2.30
2019-01-22T13:23:14.727Z,-2.30
2019-01-22T13:25:42.193Z,-2.30
2019-01-22T13:28:09.738Z,-2.20
2019-01-22T13:30:37.237Z,-2.30
2019-01-22T13:33:05.018Z,-2.30
2019-01-22T13:35:32.541Z,-2.30
2019-01-22T13:38:00.077Z,-2.30
2019-01-22T13:40:27.603Z,-2.20
2019-01-22T13:42:55.197Z,-2.20
2019-01-22T13:45:24.521Z,-2.30
2019-01-22T13:47:52.901Z,-2.40
2019-01-22T13:50:20.462Z,-2.40
2019-01-22T13:52:48.185Z,-2.50
2019-01-22T13:55:27.085Z,-2.50
2019-01-22T13:57:54.603Z,-2.50
2019-01-22T14:00:22.574Z,-2.50
2019-01-22T14:02:50.490Z,-2.50
2019-01-22T14:05:17.994Z,-2.60
2019-01-22T14:07:45.492Z,-2.60
2019-01-22T14:10:13.226Z,-2.70
2019-01-22T14:12:40.740Z,-2.20
2019-01-22T14:15:16.637Z,-2.70
2019-01-22T14:17:44.150Z,-2.70
2019-01-22T14:20:11.978Z,-2.70
2019-01-22T14:22:39.444Z,-2.70
2019-01-22T14:25:09.463Z,-2.70
2019-01-22T14:27:36.998Z,-2.70
2019-01-22T14:30:06.562Z,-2.70
2019-01-22T14:32:34.081Z,-2.70
2019-01-22T14:35:01.568Z,-2.60
2019-01-22T14:37:29.307Z,-2.70
2019-01-22T14:39:56.813Z,-2.70
2019-01-22T14:42:24.291Z,-2.70
2019-01-22T14:44:51.868Z,-2.70
2019-01-22T14:47:19.363Z,-2.70
2019-01-22T14:49:46.874Z,-2.60
2019-01-22T14:52:14.370Z,-2.60
2019-01-22T14:54:41.883Z,-2.10
2019-01-22T14:57:09.442Z,-2.60
2019-01-22T14:59:36.945Z,-2.60
2019-01-22T15:02:04.539Z,-2.60
2019-01-22T15:04:32.026Z,-2.30
2019-01-22T15:06:59.547Z,-2.60
2019-01-22T15:09:27.027Z,-2.60
2019-01-22T15:11:54.511Z,-2.60
2019-01-22T15:14:22.150Z,-2.70
2019-01-22T15:16:49.679Z,-2.70
2019-01-22T15:19:17.223Z,-2.70
2019-01-22T15:21:44.735Z,-2.70
2019-01-22T15:24:12.230Z,-2.70
2019-01-22T15:26:39.794Z,-2.40
2019-01-22T15:29:07.263Z,-2.50
2019-01-22T15:31:34.812Z,-2.60
2019-01-22T15:34:02.387Z,-2.60
2019-01-22T15:36:29.856Z,-2.40
2019-01-22T15:38:57.397Z,-2.60
2019-01-22T15:41:24.884Z,-2.70
2019-01-22T15:43:52.407Z,-2.70
2019-01-22T15:46:19.895Z,-2.80
2019-01-22T15:48:47.429Z,-2.80
2019-01-22T15:51:14.947Z,-2.70
2019-01-22T15:53:42.418Z,-2.50
2019-01-22T15:56:09.955Z,-2.80
2019-01-22T15:58:37.443Z,-2.80
2019-01-22T16:01:05.031Z,-2.80
2019-01-22T16:03:32.527Z,-2.90
2019-01-22T16:06:00.016Z,-2.90
2019-01-22T16:08:27.514Z,-3.00
2019-01-22T16:10:55.026Z,-3.00
2019-01-22T16:13:22.530Z,-3.00
2019-01-22T16:15:50.089Z,-3.00
2019-01-22T16:18:17.545Z,-3.00
2019-01-22T16:20:45.076Z,-3.00
2019-01-22T16:23:12.603Z,-2.40
2019-01-22T16:25:40.327Z,-2.90
2019-01-22T16:28:07.841Z,-2.40
2019-01-22T16:30:35.345Z,-2.80
2019-01-22T16:33:02.867Z,-2.80
2019-01-22T16:35:30.406Z,-2.90
2019-01-22T16:37:57.962Z,-2.90
2019-01-22T16:40:25.740Z,-2.80
2019-01-22T16:42:53.351Z,-2.90
2019-01-22T16:45:32.566Z,-2.90
2019-01-22T16:48:00.084Z,-2.90
2019-01-22T16:50:29.239Z,-2.90
2019-01-22T16:52:56.920Z,-2.90
2019-01-22T16:55:27.792Z,-2.90
2019-01-22T16:57:55.309Z,-2.90
2019-01-22T17:00:25.269Z,-3.00
2019-01-22T17:02:52.828Z,-2.90
2019-01-22T17:05:20.404Z,-2.90
2019-01-22T17:07:47.899Z,-2.90
2019-01-22T17:10:16.352Z,-2.90
2019-01-22T17:12:43.842Z,-3.00
2019-01-22T17:15:12.397Z,-2.90
2019-01-22T17:17:39.956Z,-2.90
2019-01-22T17:20:11.471Z,-2.90
2019-01-22T17:22:38.987Z,-2.90
2019-01-22T17:25:07.746Z,-2.90
2019-01-22T17:27:35.235Z,-2.80
2019-01-22T17:30:03.880Z,-2.90
2019-01-22T17:32:49.475Z,-2.90
2019-01-22T17:35:16.989Z,-2.80
2019-01-22T17:37:44.462Z,-2.90
2019-01-22T17:40:16.209Z,-2.40
2019-01-22T17:42:41.843Z,-2.90
2019-01-22T17:45:09.671Z,-2.90
2019-01-22T17:47:37.164Z,-2.90
2019-01-22T17:50:05.884Z,-2.90
2019-01-22T17:52:33.411Z,-2.90
2019-01-22T17:55:00.897Z,-2.90
2019-01-22T17:57:28.456Z,-2.90
2019-01-22T17:59:56.014Z,-3.00
2019-01-22T18:02:23.506Z,-3.00
2019-01-22T18:04:50.998Z,-3.00
2019-01-22T18:07:18.530Z,-3.10
2019-01-22T18:09:46.114Z,-3.10
2019-01-22T18:12:13.606Z,-3.10
2019-01-22T18:14:41.113Z,-3.10
2019-01-22T18:17:08.624Z,-3.10
2019-01-22T18:19:36.120Z,-3.10
2019-01-22T18:22:03.824Z,-3.10
2019-01-22T18:24:31.315Z,-3.10
2019-01-22T18:26:58.847Z,-3.10
2019-01-22T18:29:26.358Z,-3.10
2019-01-22T18:31:56.937Z,-3.10
2019-01-22T18:39:41.628Z,-3.10
2019-01-22T18:42:09.188Z,-3.10
2019-01-22T18:44:36.749Z,-0.10
2019-01-22T18:47:13.173Z,-3.10
2019-01-22T19:04:13.377Z,-2.70
2019-01-22T19:06:43.934Z,-0.50
2019-01-22T19:09:11.475Z,-3.20
2019-01-22T19:12:00.525Z,-3.20
2019-01-22T19:14:28.005Z,-0.80
2019-01-22T19:16:57.533Z,-2.60
2019-01-22T19:19:29.075Z,-3.10
2019-01-22T19:21:57.699Z,-3.10
2019-01-22T19:24:25.159Z,-3.10
2019-01-22T19:26:52.728Z,-3.20
2019-01-22T19:29:20.237Z,-2.50
2019-01-22T19:31:47.797Z,-3.20
2019-01-22T19:34:15.277Z,-3.10
2019-01-22T19:36:42.829Z,-3.20
2019-01-22T19:39:10.301Z,-3.10
2019-01-22T19:41:38.120Z,-3.10
2019-01-22T19:44:05.628Z,-3.10
2019-01-22T19:46:33.164Z,-3.10
2019-01-22T19:49:00.687Z,-3.10
2019-01-22T19:51:28.212Z,-3.10
2019-01-22T19:53:55.749Z,-3.20
2019-01-22T19:56:23.227Z,-3.20
2019-01-22T19:58:50.729Z,-3.10
2019-01-22T20:01:39.753Z,-3.10
2019-01-22T20:05:29.013Z,-3.10
2019-01-22T20:08:05.763Z,-4.60
2019-01-22T20:16:21.686Z,-2.00
2019-01-22T20:18:49.167Z,-3.00
2019-01-22T20:21:16.684Z,-2.80
2019-01-22T20:23:44.282Z,-3.30
2019-01-22T20:26:11.809Z,-3.30
2019-01-22T20:28:39.290Z,-3.30
2019-01-22T20:31:06.816Z,-3.30
2019-01-22T20:33:34.337Z,-3.30
2019-01-22T20:36:01.870Z,-3.30
2019-01-22T20:38:29.892Z,-3.40
2019-01-22T20:40:57.432Z,-3.40
2019-01-22T20:43:25.191Z,-3.40
2019-01-22T20:45:52.727Z,-3.40
2019-01-22T20:48:20.245Z,-3.30
2019-01-22T20:50:47.741Z,-3.40
2019-01-22T20:53:15.293Z,-3.30
2019-01-22T20:55:42.799Z,-3.30
2019-01-22T20:58:10.405Z,-3.30
2019-01-22T21:00:37.971Z,-3.30
2019-01-22T21:03:05.497Z,-3.30
2019-01-22T21:05:33.118Z,-3.10
2019-01-22T21:08:00.708Z,-3.30
2019-01-22T21:10:30.269Z,-3.20
2019-01-22T21:12:57.908Z,-2.90
2019-01-22T21:15:25.698Z,-3.30
2019-01-22T21:17:53.233Z,-3.30
2019-01-22T21:20:20.788Z,-3.30
2019-01-22T21:22:48.318Z,-3.30
2019-01-22T21:25:16.482Z,-3.30
2019-01-22T21:27:44.072Z,-3.30
2019-01-22T21:30:15.454Z,-3.30
2019-01-22T21:32:42.991Z,-3.30
2019-01-22T21:35:10.520Z,-3.30
2019-01-22T21:37:38.015Z,-3.20
2019-01-22T21:40:06.547Z,-3.30
2019-01-22T21:42:34.024Z,-3.40
2019-01-22T21:45:01.535Z,-3.40
2019-01-22T21:47:29.031Z,-3.60
2019-01-22T21:49:56.579Z,-3.70
2019-01-22T21:52:24.263Z,-3.70
2019-01-22T21:54:51.753Z,-3.70
2019-01-22T21:57:19.228Z,-3.60
2019-01-22T21:59:46.737Z,-3.60
2019-01-22T22:02:14.207Z,-3.60
2019-01-22T22:04:41.702Z,-3.60
2019-01-22T22:07:09.191Z,-3.60
2019-01-22T22:09:36.656Z,-3.60
2019-01-22T22:12:04.140Z,-3.60
2019-01-22T22:14:31.667Z,-3.60
2019-01-22T22:16:59.476Z,-3.50
2019-01-22T22:19:26.961Z,-3.60
2019-01-22T22:21:54.429Z,-3.60
2019-01-22T22:24:21.954Z,-3.60
2019-01-22T22:26:49.475Z,-3.60
2019-01-22T22:29:16.930Z,-3.60
2019-01-22T22:31:44.446Z,-3.60
2019-01-22T22:34:11.989Z,-3.70
2019-01-22T22:36:39.484Z,-3.60
2019-01-22T22:39:07.781Z,-3.70
2019-01-22T22:41:35.263Z,-3.70
2019-01-22T22:44:02.759Z,-3.70
2019-01-22T22:46:30.288Z,-3.70
2019-01-22T22:48:57.777Z,-3.60
2019-01-22T22:51:25.317Z,-3.70
2019-01-22T22:53:52.860Z,-3.80
2019-01-22T22:56:20.412Z,-3.80
2019-01-22T22:58:47.859Z,-3.80
2019-01-22T23:01:27.519Z,-3.80
2019-01-22T23:03:55.082Z,-3.90
2019-01-22T23:06:22.615Z,-3.90
2019-01-22T23:08:50.125Z,-3.90
2019-01-22T23:11:17.620Z,-3.90
2019-01-22T23:13:45.126Z,-3.90
2019-01-22T23:16:12.668Z,-3.90
2019-01-22T23:18:40.159Z,-3.80
2019-01-22T23:21:07.681Z,-3.90
2019-01-22T23:23:35.132Z,-3.90
2019-01-22T23:26:02.634Z,-3.90
2019-01-22T23:28:30.113Z,-3.90
2019-01-22T23:30:57.628Z,-4.00
2019-01-22T23:33:25.162Z,-4.00
2019-01-22T23:35:52.643Z,-4.00
2019-01-22T23:38:20.192Z,-4.10
2019-01-22T23:40:47.705Z,-4.10
2019-01-22T23:43:15.200Z,-4.10
2019-01-22T23:45:42.770Z,-4.00
2019-01-22T23:48:10.304Z,-4.00
2019-01-22T23:50:37.775Z,-4.10
2019-01-22T23:53:05.255Z,-4.00
2019-01-22T23:55:32.783Z,-4.00
2019-01-22T23:58:00.266Z,-4.00
